sensor_id;sensor_type;location;lat;lon;timestamp;P1;durP1;ratioP1;P2;durP2;ratioP2
42840;SDS011;28491;46.898;7.660;2024-01-15T00:01:42;5.72;;;3.58;;
42840;SDS011;28491;46.898;7.660;2024-01-15T00:04:09;4.88;;;3.15;;
42840;SDS011;28491;46.898;7.660;2024-01-15T00:06:38;5.72;;;3.13;;
42840;SDS011;28491;46.898;7.660;2024-01-15T00:09:03;5.18;;;2.83;;
42840;SDS011;28491;46.898;7.660;2024-01-15T00:11:29;6.55;;;3.40;;
42840;SDS011;28491;46.898;7.660;2024-01-15T00:13:54;6.82;;;3.20;;
42840;SDS011;28491;46.898;7.660;2024-01-15T00:16:20;9.55;;;4.88;;
42840;SDS011;28491;46.898;7.660;2024-01-15T00:18:45;7.50;;;3.72;;
42840;SDS011;28491;46.898;7.660;2024-01-15T00:21:11;7.43;;;4.72;;
42840;SDS011;28491;46.898;7.660;2024-01-15T00:23:36;7.57;;;3.97;;
42840;SDS011;28491;46.898;7.660;2024-01-15T00:26:02;6.80;;;4.38;;
42840;SDS011;28491;46.898;7.660;2024-01-15T00:28:27;9.88;;;3.40;;
42840;SDS011;28491;46.898;7.660;2024-01-15T00:30:53;5.60;;;3.40;;
42840;SDS011;28491;46.898;7.660;2024-01-15T00:33:18;9.35;;;4.05;;
42840;SDS011;28491;46.898;7.660;2024-01-15T00:35:44;3.83;;;2.50;;
42840;SDS011;28491;46.898;7.660;2024-01-15T00:38:09;5.43;;;3.55;;
42840;SDS011;28491;46.898;7.660;2024-01-15T00:40:35;6.03;;;2.85;;
42840;SDS011;28491;46.898;7.660;2024-01-15T00:43:01;3.25;;;2.28;;
42840;SDS011;28491;46.898;7.660;2024-01-15T00:45:27;3.65;;;2.17;;
42840;SDS011;28491;46.898;7.660;2024-01-15T00:47:53;4.20;;;1.92;;
42840;SDS011;28491;46.898;7.660;2024-01-15T00:50:21;4.10;;;2.03;;
42840;SDS011;28491;46.898;7.660;2024-01-15T00:52:46;4.75;;;1.60;;
42840;SDS011;28491;46.898;7.660;2024-01-15T00:55:12;5.40;;;1.95;;
42840;SDS011;28491;46.898;7.660;2024-01-15T00:57:37;4.88;;;2.17;;
42840;SDS011;28491;46.898;7.660;2024-01-15T01:00:03;4.57;;;2.15;;
42840;SDS011;28491;46.898;7.660;2024-01-15T01:02:29;8.40;;;2.45;;
42840;SDS011;28491;46.898;7.660;2024-01-15T01:04:55;2.65;;;1.65;;
42840;SDS011;28491;46.898;7.660;2024-01-15T01:07:20;3.28;;;2.05;;
42840;SDS011;28491;46.898;7.660;2024-01-15T01:09:46;4.78;;;2.13;;
42840;SDS011;28491;46.898;7.660;2024-01-15T01:12:13;2.92;;;1.88;;
42840;SDS011;28491;46.898;7.660;2024-01-15T01:14:38;4.78;;;1.80;;
42840;SDS011;28491;46.898;7.660;2024-01-15T01:17:04;3.38;;;1.80;;
42840;SDS011;28491;46.898;7.660;2024-01-15T01:19:29;4.18;;;2.50;;
42840;SDS011;28491;46.898;7.660;2024-01-15T01:21:55;5.70;;;3.03;;
42840;SDS011;28491;46.898;7.660;2024-01-15T01:24:20;4.55;;;2.55;;
42840;SDS011;28491;46.898;7.660;2024-01-15T01:26:46;2.38;;;1.80;;
42840;SDS011;28491;46.898;7.660;2024-01-15T01:29:12;2.45;;;1.73;;
42840;SDS011;28491;46.898;7.660;2024-01-15T01:31:42;2.67;;;1.83;;
42840;SDS011;28491;46.898;7.660;2024-01-15T01:34:13;3.28;;;1.70;;
42840;SDS011;28491;46.898;7.660;2024-01-15T01:39:05;4.43;;;2.05;;
42840;SDS011;28491;46.898;7.660;2024-01-15T01:41:33;5.05;;;1.63;;
42840;SDS011;28491;46.898;7.660;2024-01-15T01:43:59;3.80;;;1.90;;
42840;SDS011;28491;46.898;7.660;2024-01-15T01:46:24;2.65;;;1.77;;
42840;SDS011;28491;46.898;7.660;2024-01-15T01:48:52;2.28;;;1.40;;
42840;SDS011;28491;46.898;7.660;2024-01-15T01:51:18;2.97;;;1.75;;
42840;SDS011;28491;46.898;7.660;2024-01-15T01:53:46;3.45;;;1.92;;
42840;SDS011;28491;46.898;7.660;2024-01-15T01:56:12;5.05;;;2.45;;
42840;SDS011;28491;46.898;7.660;2024-01-15T01:58:39;3.25;;;1.58;;
42840;SDS011;28491;46.898;7.660;2024-01-15T02:01:05;2.10;;;1.55;;
42840;SDS011;28491;46.898;7.660;2024-01-15T02:03:31;3.22;;;1.88;;
42840;SDS011;28491;46.898;7.660;2024-01-15T02:05:57;4.13;;;1.73;;
42840;SDS011;28491;46.898;7.660;2024-01-15T02:08:23;3.33;;;1.75;;
42840;SDS011;28491;46.898;7.660;2024-01-15T02:10:49;3.35;;;1.85;;
42840;SDS011;28491;46.898;7.660;2024-01-15T02:13:15;2.17;;;1.73;;
42840;SDS011;28491;46.898;7.660;2024-01-15T02:15:43;2.60;;;1.98;;
42840;SDS011;28491;46.898;7.660;2024-01-15T02:18:09;5.18;;;2.38;;
42840;SDS011;28491;46.898;7.660;2024-01-15T02:20:35;3.97;;;2.45;;
42840;SDS011;28491;46.898;7.660;2024-01-15T02:25:34;2.78;;;2.33;;
42840;SDS011;28491;46.898;7.660;2024-01-15T02:28:01;4.32;;;2.28;;
42840;SDS011;28491;46.898;7.660;2024-01-15T02:30:27;5.43;;;2.13;;
42840;SDS011;28491;46.898;7.660;2024-01-15T02:32:54;3.97;;;2.05;;
42840;SDS011;28491;46.898;7.660;2024-01-15T02:35:20;3.22;;;2.00;;
42840;SDS011;28491;46.898;7.660;2024-01-15T02:37:45;5.78;;;2.00;;
42840;SDS011;28491;46.898;7.660;2024-01-15T02:40:11;2.35;;;1.65;;
42840;SDS011;28491;46.898;7.660;2024-01-15T02:42:36;2.80;;;2.05;;
42840;SDS011;28491;46.898;7.660;2024-01-15T02:45:03;3.13;;;2.22;;
42840;SDS011;28491;46.898;7.660;2024-01-15T02:47:28;3.08;;;1.92;;
42840;SDS011;28491;46.898;7.660;2024-01-15T02:49:54;3.85;;;2.20;;
42840;SDS011;28491;46.898;7.660;2024-01-15T02:52:20;3.40;;;1.92;;
42840;SDS011;28491;46.898;7.660;2024-01-15T02:54:45;2.85;;;1.70;;
42840;SDS011;28491;46.898;7.660;2024-01-15T02:57:11;2.90;;;1.90;;
42840;SDS011;28491;46.898;7.660;2024-01-15T02:59:36;2.75;;;1.75;;
42840;SDS011;28491;46.898;7.660;2024-01-15T03:02:02;3.00;;;1.77;;
42840;SDS011;28491;46.898;7.660;2024-01-15T03:04:27;4.05;;;2.10;;
42840;SDS011;28491;46.898;7.660;2024-01-15T03:06:53;2.75;;;1.85;;
42840;SDS011;28491;46.898;7.660;2024-01-15T03:09:18;3.17;;;1.83;;
42840;SDS011;28491;46.898;7.660;2024-01-15T03:11:44;3.47;;;2.00;;
42840;SDS011;28491;46.898;7.660;2024-01-15T03:14:09;3.58;;;2.30;;
42840;SDS011;28491;46.898;7.660;2024-01-15T03:16:35;3.13;;;2.00;;
42840;SDS011;28491;46.898;7.660;2024-01-15T03:19:01;2.58;;;1.40;;
42840;SDS011;28491;46.898;7.660;2024-01-15T03:21:26;3.63;;;2.22;;
42840;SDS011;28491;46.898;7.660;2024-01-15T03:23:51;2.97;;;1.65;;
42840;SDS011;28491;46.898;7.660;2024-01-15T03:26:17;3.22;;;1.83;;
42840;SDS011;28491;46.898;7.660;2024-01-15T03:28:42;4.60;;;2.20;;
42840;SDS011;28491;46.898;7.660;2024-01-15T03:31:08;4.10;;;1.88;;
42840;SDS011;28491;46.898;7.660;2024-01-15T03:33:34;3.30;;;2.28;;
42840;SDS011;28491;46.898;7.660;2024-01-15T03:35:59;4.10;;;1.98;;
42840;SDS011;28491;46.898;7.660;2024-01-15T03:38:26;4.10;;;1.70;;
42840;SDS011;28491;46.898;7.660;2024-01-15T03:40:55;4.65;;;2.45;;
42840;SDS011;28491;46.898;7.660;2024-01-15T03:43:20;4.22;;;2.58;;
42840;SDS011;28491;46.898;7.660;2024-01-15T03:45:46;2.97;;;1.90;;
42840;SDS011;28491;46.898;7.660;2024-01-15T03:48:11;3.47;;;2.15;;
42840;SDS011;28491;46.898;7.660;2024-01-15T03:50:37;3.42;;;1.88;;
42840;SDS011;28491;46.898;7.660;2024-01-15T03:53:02;4.22;;;2.20;;
42840;SDS011;28491;46.898;7.660;2024-01-15T03:55:28;4.18;;;2.03;;
42840;SDS011;28491;46.898;7.660;2024-01-15T03:57:53;5.47;;;2.35;;
42840;SDS011;28491;46.898;7.660;2024-01-15T04:00:19;4.18;;;2.10;;
42840;SDS011;28491;46.898;7.660;2024-01-15T04:02:45;3.88;;;1.95;;
42840;SDS011;28491;46.898;7.660;2024-01-15T04:05:11;3.20;;;1.92;;
42840;SDS011;28491;46.898;7.660;2024-01-15T04:07:36;2.33;;;1.52;;
42840;SDS011;28491;46.898;7.660;2024-01-15T04:10:02;4.10;;;2.38;;
42840;SDS011;28491;46.898;7.660;2024-01-15T04:12:27;4.05;;;2.33;;
42840;SDS011;28491;46.898;7.660;2024-01-15T04:14:53;3.50;;;2.00;;
42840;SDS011;28491;46.898;7.660;2024-01-15T04:17:18;3.30;;;2.20;;
42840;SDS011;28491;46.898;7.660;2024-01-15T04:19:44;3.45;;;2.90;;
42840;SDS011;28491;46.898;7.660;2024-01-15T04:22:10;3.92;;;2.50;;
42840;SDS011;28491;46.898;7.660;2024-01-15T04:24:35;3.05;;;1.70;;
42840;SDS011;28491;46.898;7.660;2024-01-15T04:27:01;5.60;;;2.53;;
42840;SDS011;28491;46.898;7.660;2024-01-15T04:29:26;4.45;;;3.20;;
42840;SDS011;28491;46.898;7.660;2024-01-15T04:31:53;7.57;;;3.33;;
42840;SDS011;28491;46.898;7.660;2024-01-15T04:34:18;3.95;;;2.70;;
42840;SDS011;28491;46.898;7.660;2024-01-15T04:36:44;4.03;;;2.63;;
42840;SDS011;28491;46.898;7.660;2024-01-15T04:39:09;4.97;;;3.60;;
42840;SDS011;28491;46.898;7.660;2024-01-15T04:41:36;5.35;;;3.05;;
42840;SDS011;28491;46.898;7.660;2024-01-15T04:44:02;5.95;;;3.78;;
42840;SDS011;28491;46.898;7.660;2024-01-15T04:46:28;5.72;;;3.10;;
42840;SDS011;28491;46.898;7.660;2024-01-15T04:48:53;3.65;;;2.33;;
42840;SDS011;28491;46.898;7.660;2024-01-15T04:51:19;8.65;;;4.00;;
42840;SDS011;28491;46.898;7.660;2024-01-15T04:53:44;7.93;;;4.95;;
42840;SDS011;28491;46.898;7.660;2024-01-15T04:56:10;11.65;;;4.93;;
42840;SDS011;28491;46.898;7.660;2024-01-15T04:58:35;7.57;;;4.97;;
42840;SDS011;28491;46.898;7.660;2024-01-15T05:01:01;4.85;;;3.60;;
42840;SDS011;28491;46.898;7.660;2024-01-15T05:03:26;6.18;;;3.67;;
42840;SDS011;28491;46.898;7.660;2024-01-15T05:05:52;5.75;;;3.70;;
42840;SDS011;28491;46.898;7.660;2024-01-15T05:08:17;7.68;;;4.45;;
42840;SDS011;28491;46.898;7.660;2024-01-15T05:10:43;6.63;;;3.70;;
42840;SDS011;28491;46.898;7.660;2024-01-15T05:13:09;5.78;;;3.80;;
42840;SDS011;28491;46.898;7.660;2024-01-15T05:15:34;7.50;;;4.80;;
42840;SDS011;28491;46.898;7.660;2024-01-15T05:18:00;6.72;;;4.15;;
42840;SDS011;28491;46.898;7.660;2024-01-15T05:20:25;7.10;;;3.60;;
42840;SDS011;28491;46.898;7.660;2024-01-15T05:22:51;4.35;;;2.58;;
42840;SDS011;28491;46.898;7.660;2024-01-15T05:25:16;5.25;;;3.47;;
42840;SDS011;28491;46.898;7.660;2024-01-15T05:27:42;4.15;;;2.50;;
42840;SDS011;28491;46.898;7.660;2024-01-15T05:30:07;5.50;;;2.42;;
42840;SDS011;28491;46.898;7.660;2024-01-15T05:32:33;4.45;;;2.63;;
42840;SDS011;28491;46.898;7.660;2024-01-15T05:34:59;4.43;;;2.45;;
42840;SDS011;28491;46.898;7.660;2024-01-15T05:37:24;2.90;;;1.90;;
42840;SDS011;28491;46.898;7.660;2024-01-15T05:39:50;4.40;;;2.80;;
42840;SDS011;28491;46.898;7.660;2024-01-15T05:42:15;5.95;;;2.97;;
42840;SDS011;28491;46.898;7.660;2024-01-15T05:44:41;6.13;;;3.60;;
42840;SDS011;28491;46.898;7.660;2024-01-15T05:47:07;5.25;;;2.78;;
42840;SDS011;28491;46.898;7.660;2024-01-15T05:49:33;3.70;;;2.92;;
42840;SDS011;28491;46.898;7.660;2024-01-15T05:51:58;3.22;;;2.50;;
42840;SDS011;28491;46.898;7.660;2024-01-15T05:54:24;8.00;;;2.78;;
42840;SDS011;28491;46.898;7.660;2024-01-15T05:56:49;6.47;;;3.30;;
42840;SDS011;28491;46.898;7.660;2024-01-15T05:59:15;5.28;;;3.47;;
42840;SDS011;28491;46.898;7.660;2024-01-15T06:01:40;3.83;;;2.58;;
42840;SDS011;28491;46.898;7.660;2024-01-15T06:04:08;4.15;;;2.33;;
42840;SDS011;28491;46.898;7.660;2024-01-15T06:06:34;5.18;;;2.35;;
42840;SDS011;28491;46.898;7.660;2024-01-15T06:08:59;4.22;;;2.90;;
42840;SDS011;28491;46.898;7.660;2024-01-15T06:11:30;4.15;;;2.28;;
42840;SDS011;28491;46.898;7.660;2024-01-15T06:13:56;3.95;;;2.60;;
42840;SDS011;28491;46.898;7.660;2024-01-15T06:16:22;6.43;;;2.13;;
42840;SDS011;28491;46.898;7.660;2024-01-15T06:18:49;2.88;;;1.80;;
42840;SDS011;28491;46.898;7.660;2024-01-15T06:21:14;3.35;;;1.80;;
42840;SDS011;28491;46.898;7.660;2024-01-15T06:23:41;3.13;;;2.28;;
42840;SDS011;28491;46.898;7.660;2024-01-15T06:26:06;5.05;;;2.53;;
42840;SDS011;28491;46.898;7.660;2024-01-15T06:28:32;3.78;;;1.85;;
42840;SDS011;28491;46.898;7.660;2024-01-15T06:30:57;3.00;;;1.67;;
42840;SDS011;28491;46.898;7.660;2024-01-15T06:33:23;3.97;;;2.47;;
42840;SDS011;28491;46.898;7.660;2024-01-15T06:35:49;3.22;;;1.90;;
42840;SDS011;28491;46.898;7.660;2024-01-15T06:38:15;6.28;;;1.65;;
42840;SDS011;28491;46.898;7.660;2024-01-15T06:40:40;1.70;;;1.30;;
42840;SDS011;28491;46.898;7.660;2024-01-15T06:43:10;1.83;;;1.27;;
42840;SDS011;28491;46.898;7.660;2024-01-15T06:45:36;2.55;;;1.63;;
42840;SDS011;28491;46.898;7.660;2024-01-15T06:48:02;2.53;;;1.50;;
42840;SDS011;28491;46.898;7.660;2024-01-15T06:50:28;2.70;;;1.50;;
42840;SDS011;28491;46.898;7.660;2024-01-15T06:52:53;3.20;;;2.03;;
42840;SDS011;28491;46.898;7.660;2024-01-15T06:55:19;2.67;;;1.90;;
42840;SDS011;28491;46.898;7.660;2024-01-15T06:57:44;4.13;;;1.88;;
42840;SDS011;28491;46.898;7.660;2024-01-15T07:00:10;4.57;;;2.42;;
42840;SDS011;28491;46.898;7.660;2024-01-15T07:02:36;4.03;;;2.47;;
42840;SDS011;28491;46.898;7.660;2024-01-15T07:05:01;5.13;;;2.45;;
42840;SDS011;28491;46.898;7.660;2024-01-15T07:07:30;3.03;;;1.85;;
42840;SDS011;28491;46.898;7.660;2024-01-15T07:09:56;2.90;;;1.83;;
42840;SDS011;28491;46.898;7.660;2024-01-15T07:12:21;8.45;;;1.80;;
42840;SDS011;28491;46.898;7.660;2024-01-15T07:14:47;2.88;;;2.00;;
42840;SDS011;28491;46.898;7.660;2024-01-15T07:17:13;2.42;;;1.65;;
42840;SDS011;28491;46.898;7.660;2024-01-15T07:19:38;2.28;;;1.48;;
42840;SDS011;28491;46.898;7.660;2024-01-15T07:22:03;2.75;;;1.70;;
42840;SDS011;28491;46.898;7.660;2024-01-15T07:24:29;3.15;;;2.45;;
42840;SDS011;28491;46.898;7.660;2024-01-15T07:26:55;3.58;;;1.90;;
42840;SDS011;28491;46.898;7.660;2024-01-15T07:29:20;2.80;;;1.67;;
42840;SDS011;28491;46.898;7.660;2024-01-15T07:31:49;3.78;;;1.95;;
42840;SDS011;28491;46.898;7.660;2024-01-15T07:34:16;4.63;;;2.95;;
42840;SDS011;28491;46.898;7.660;2024-01-15T07:36:42;3.85;;;2.25;;
42840;SDS011;28491;46.898;7.660;2024-01-15T07:39:10;3.97;;;2.13;;
42840;SDS011;28491;46.898;7.660;2024-01-15T07:41:36;3.35;;;2.05;;
42840;SDS011;28491;46.898;7.660;2024-01-15T07:44:02;3.53;;;1.95;;
42840;SDS011;28491;46.898;7.660;2024-01-15T07:46:28;4.00;;;2.20;;
42840;SDS011;28491;46.898;7.660;2024-01-15T07:48:53;3.85;;;2.65;;
42840;SDS011;28491;46.898;7.660;2024-01-15T07:51:22;4.80;;;2.80;;
42840;SDS011;28491;46.898;7.660;2024-01-15T07:53:48;3.28;;;2.10;;
42840;SDS011;28491;46.898;7.660;2024-01-15T07:56:14;3.13;;;2.20;;
42840;SDS011;28491;46.898;7.660;2024-01-15T07:58:39;3.58;;;2.28;;
42840;SDS011;28491;46.898;7.660;2024-01-15T08:01:05;3.95;;;2.28;;
42840;SDS011;28491;46.898;7.660;2024-01-15T08:03:31;3.15;;;1.88;;
42840;SDS011;28491;46.898;7.660;2024-01-15T08:05:59;4.35;;;1.60;;
42840;SDS011;28491;46.898;7.660;2024-01-15T08:08:25;2.63;;;1.90;;
42840;SDS011;28491;46.898;7.660;2024-01-15T08:10:52;3.47;;;2.22;;
42840;SDS011;28491;46.898;7.660;2024-01-15T08:13:18;4.05;;;2.55;;
42840;SDS011;28491;46.898;7.660;2024-01-15T08:15:45;2.80;;;1.98;;
42840;SDS011;28491;46.898;7.660;2024-01-15T08:18:10;2.88;;;1.95;;
42840;SDS011;28491;46.898;7.660;2024-01-15T08:20:36;4.03;;;2.17;;
42840;SDS011;28491;46.898;7.660;2024-01-15T08:23:02;3.92;;;2.47;;
42840;SDS011;28491;46.898;7.660;2024-01-15T08:25:28;5.60;;;2.50;;
42840;SDS011;28491;46.898;7.660;2024-01-15T08:27:53;4.78;;;2.38;;
42840;SDS011;28491;46.898;7.660;2024-01-15T08:30:19;4.25;;;2.63;;
42840;SDS011;28491;46.898;7.660;2024-01-15T08:32:46;4.63;;;2.25;;
42840;SDS011;28491;46.898;7.660;2024-01-15T08:35:11;5.18;;;2.72;;
42840;SDS011;28491;46.898;7.660;2024-01-15T08:40:03;4.57;;;2.55;;
42840;SDS011;28491;46.898;7.660;2024-01-15T08:42:29;4.40;;;2.45;;
42840;SDS011;28491;46.898;7.660;2024-01-15T08:44:55;6.57;;;2.67;;
42840;SDS011;28491;46.898;7.660;2024-01-15T08:47:20;5.90;;;2.72;;
42840;SDS011;28491;46.898;7.660;2024-01-15T08:49:46;5.65;;;2.92;;
42840;SDS011;28491;46.898;7.660;2024-01-15T08:52:11;4.20;;;2.63;;
42840;SDS011;28491;46.898;7.660;2024-01-15T08:54:37;5.68;;;3.00;;
42840;SDS011;28491;46.898;7.660;2024-01-15T08:57:03;4.63;;;2.90;;
42840;SDS011;28491;46.898;7.660;2024-01-15T08:59:28;4.80;;;3.03;;
42840;SDS011;28491;46.898;7.660;2024-01-15T09:01:54;9.13;;;3.67;;
42840;SDS011;28491;46.898;7.660;2024-01-15T09:04:22;6.15;;;3.60;;
42840;SDS011;28491;46.898;7.660;2024-01-15T09:06:48;5.18;;;2.78;;
42840;SDS011;28491;46.898;7.660;2024-01-15T09:09:13;4.15;;;2.90;;
42840;SDS011;28491;46.898;7.660;2024-01-15T09:11:39;4.72;;;2.63;;
42840;SDS011;28491;46.898;7.660;2024-01-15T09:14:05;5.05;;;2.90;;
42840;SDS011;28491;46.898;7.660;2024-01-15T09:16:31;6.85;;;3.65;;
42840;SDS011;28491;46.898;7.660;2024-01-15T09:18:56;4.63;;;2.70;;
42840;SDS011;28491;46.898;7.660;2024-01-15T09:21:22;4.75;;;3.00;;
42840;SDS011;28491;46.898;7.660;2024-01-15T09:23:49;4.90;;;3.30;;
42840;SDS011;28491;46.898;7.660;2024-01-15T09:26:15;14.27;;;3.88;;
42840;SDS011;28491;46.898;7.660;2024-01-15T09:28:41;6.72;;;3.40;;
42840;SDS011;28491;46.898;7.660;2024-01-15T09:31:07;4.55;;;3.00;;
42840;SDS011;28491;46.898;7.660;2024-01-15T09:33:38;6.15;;;3.15;;
42840;SDS011;28491;46.898;7.660;2024-01-15T09:36:13;6.63;;;3.42;;
42840;SDS011;28491;46.898;7.660;2024-01-15T09:38:40;6.55;;;3.97;;
42840;SDS011;28491;46.898;7.660;2024-01-15T09:44:18;5.57;;;2.90;;
42840;SDS011;28491;46.898;7.660;2024-01-15T09:46:44;4.10;;;2.90;;
42840;SDS011;28491;46.898;7.660;2024-01-15T09:49:12;5.50;;;3.20;;
42840;SDS011;28491;46.898;7.660;2024-01-15T09:51:38;9.38;;;4.70;;
42840;SDS011;28491;46.898;7.660;2024-01-15T09:54:27;4.85;;;2.97;;
42840;SDS011;28491;46.898;7.660;2024-01-15T09:56:53;5.45;;;2.95;;
42840;SDS011;28491;46.898;7.660;2024-01-15T09:59:22;5.80;;;3.13;;
42840;SDS011;28491;46.898;7.660;2024-01-15T10:01:52;4.63;;;3.00;;
42840;SDS011;28491;46.898;7.660;2024-01-15T10:04:18;4.82;;;2.83;;
42840;SDS011;28491;46.898;7.660;2024-01-15T10:06:44;5.10;;;2.63;;
42840;SDS011;28491;46.898;7.660;2024-01-15T10:09:12;6.22;;;3.72;;
42840;SDS011;28491;46.898;7.660;2024-01-15T10:11:44;4.68;;;2.60;;
42840;SDS011;28491;46.898;7.660;2024-01-15T10:14:10;6.00;;;3.30;;
42840;SDS011;28491;46.898;7.660;2024-01-15T10:16:39;3.92;;;2.53;;
42840;SDS011;28491;46.898;7.660;2024-01-15T10:19:05;6.70;;;3.03;;
42840;SDS011;28491;46.898;7.660;2024-01-15T10:21:32;5.13;;;2.78;;
42840;SDS011;28491;46.898;7.660;2024-01-15T10:24:06;5.80;;;3.30;;
42840;SDS011;28491;46.898;7.660;2024-01-15T10:26:32;3.72;;;2.75;;
42840;SDS011;28491;46.898;7.660;2024-01-15T10:28:58;6.97;;;4.00;;
42840;SDS011;28491;46.898;7.660;2024-01-15T10:31:25;8.57;;;3.92;;
42840;SDS011;28491;46.898;7.660;2024-01-15T10:33:51;5.93;;;3.53;;
42840;SDS011;28491;46.898;7.660;2024-01-15T10:36:22;6.70;;;3.45;;
42840;SDS011;28491;46.898;7.660;2024-01-15T10:39:28;5.18;;;3.35;;
42840;SDS011;28491;46.898;7.660;2024-01-15T10:42:00;6.03;;;3.58;;
42840;SDS011;28491;46.898;7.660;2024-01-15T10:44:29;8.07;;;4.30;;
42840;SDS011;28491;46.898;7.660;2024-01-15T10:46:57;7.63;;;4.38;;
42840;SDS011;28491;46.898;7.660;2024-01-15T10:49:23;7.78;;;4.40;;
42840;SDS011;28491;46.898;7.660;2024-01-15T10:52:39;8.15;;;3.88;;
42840;SDS011;28491;46.898;7.660;2024-01-15T10:55:09;5.90;;;3.77;;
42840;SDS011;28491;46.898;7.660;2024-01-15T10:57:36;6.70;;;3.70;;
42840;SDS011;28491;46.898;7.660;2024-01-15T11:06:03;7.00;;;3.95;;
42840;SDS011;28491;46.898;7.660;2024-01-15T11:08:50;6.82;;;4.72;;
42840;SDS011;28491;46.898;7.660;2024-01-15T11:11:28;5.53;;;3.42;;
42840;SDS011;28491;46.898;7.660;2024-01-15T11:14:02;6.55;;;4.10;;
42840;SDS011;28491;46.898;7.660;2024-01-15T11:16:53;6.05;;;3.78;;
42840;SDS011;28491;46.898;7.660;2024-01-15T11:19:23;7.90;;;4.20;;
42840;SDS011;28491;46.898;7.660;2024-01-15T11:21:55;5.50;;;3.80;;
42840;SDS011;28491;46.898;7.660;2024-01-15T11:24:38;5.93;;;3.75;;
42840;SDS011;28491;46.898;7.660;2024-01-15T11:27:06;6.50;;;3.53;;
42840;SDS011;28491;46.898;7.660;2024-01-15T11:29:33;7.07;;;3.58;;
42840;SDS011;28491;46.898;7.660;2024-01-15T11:35:01;5.85;;;3.67;;
42840;SDS011;28491;46.898;7.660;2024-01-15T11:37:28;5.95;;;4.05;;
42840;SDS011;28491;46.898;7.660;2024-01-15T11:40:14;5.63;;;3.58;;
42840;SDS011;28491;46.898;7.660;2024-01-15T11:45:31;6.07;;;4.00;;
42840;SDS011;28491;46.898;7.660;2024-01-15T11:48:11;7.65;;;5.32;;
42840;SDS011;28491;46.898;7.660;2024-01-15T11:50:46;7.03;;;3.63;;
42840;SDS011;28491;46.898;7.660;2024-01-15T11:53:32;11.85;;;4.32;;
42840;SDS011;28491;46.898;7.660;2024-01-15T11:56:15;7.28;;;3.88;;
42840;SDS011;28491;46.898;7.660;2024-01-15T11:58:44;6.43;;;3.58;;
42840;SDS011;28491;46.898;7.660;2024-01-15T12:01:12;10.70;;;5.13;;
42840;SDS011;28491;46.898;7.660;2024-01-15T12:07:08;8.02;;;4.32;;
42840;SDS011;28491;46.898;7.660;2024-01-15T12:13:29;4.10;;;2.78;;
42840;SDS011;28491;46.898;7.660;2024-01-15T12:16:06;5.82;;;3.08;;
42840;SDS011;28491;46.898;7.660;2024-01-15T12:19:15;5.88;;;3.38;;
42840;SDS011;28491;46.898;7.660;2024-01-15T12:21:49;6.13;;;3.58;;
42840;SDS011;28491;46.898;7.660;2024-01-15T12:24:20;5.53;;;3.40;;
42840;SDS011;28491;46.898;7.660;2024-01-15T12:26:46;6.60;;;4.55;;
42840;SDS011;28491;46.898;7.660;2024-01-15T12:29:12;8.50;;;4.18;;
42840;SDS011;28491;46.898;7.660;2024-01-15T12:31:38;5.22;;;3.50;;
42840;SDS011;28491;46.898;7.660;2024-01-15T12:34:06;6.10;;;3.58;;
42840;SDS011;28491;46.898;7.660;2024-01-15T12:36:36;8.25;;;4.20;;
42840;SDS011;28491;46.898;7.660;2024-01-15T12:39:10;5.25;;;3.20;;
42840;SDS011;28491;46.898;7.660;2024-01-15T12:41:39;5.65;;;3.65;;
42840;SDS011;28491;46.898;7.660;2024-01-15T12:44:17;4.80;;;3.17;;
42840;SDS011;28491;46.898;7.660;2024-01-15T12:46:53;6.50;;;3.00;;
42840;SDS011;28491;46.898;7.660;2024-01-15T12:49:19;5.80;;;3.70;;
42840;SDS011;28491;46.898;7.660;2024-01-15T12:51:56;6.25;;;3.88;;
42840;SDS011;28491;46.898;7.660;2024-01-15T12:54:30;5.78;;;3.40;;
42840;SDS011;28491;46.898;7.660;2024-01-15T12:56:55;4.75;;;2.92;;
42840;SDS011;28491;46.898;7.660;2024-01-15T12:59:24;5.60;;;3.65;;
42840;SDS011;28491;46.898;7.660;2024-01-15T13:01:49;6.72;;;3.78;;
42840;SDS011;28491;46.898;7.660;2024-01-15T13:04:24;6.55;;;3.42;;
42840;SDS011;28491;46.898;7.660;2024-01-15T13:06:50;5.35;;;3.03;;
42840;SDS011;28491;46.898;7.660;2024-01-15T13:09:16;5.57;;;3.63;;
42840;SDS011;28491;46.898;7.660;2024-01-15T13:11:43;6.82;;;3.28;;
42840;SDS011;28491;46.898;7.660;2024-01-15T13:14:13;6.15;;;3.53;;
42840;SDS011;28491;46.898;7.660;2024-01-15T13:19:06;7.97;;;3.80;;
42840;SDS011;28491;46.898;7.660;2024-01-15T13:21:33;7.53;;;3.63;;
42840;SDS011;28491;46.898;7.660;2024-01-15T13:23:59;4.93;;;3.20;;
42840;SDS011;28491;46.898;7.660;2024-01-15T13:26:25;5.90;;;3.63;;
42840;SDS011;28491;46.898;7.660;2024-01-15T13:28:50;5.40;;;3.40;;
42840;SDS011;28491;46.898;7.660;2024-01-15T13:31:16;4.40;;;2.65;;
42840;SDS011;28491;46.898;7.660;2024-01-15T13:33:41;3.45;;;2.45;;
42840;SDS011;28491;46.898;7.660;2024-01-15T13:36:07;6.25;;;3.25;;
42840;SDS011;28491;46.898;7.660;2024-01-15T13:38:35;4.75;;;2.70;;
42840;SDS011;28491;46.898;7.660;2024-01-15T13:41:03;4.50;;;2.78;;
42840;SDS011;28491;46.898;7.660;2024-01-15T13:43:31;3.33;;;2.17;;
42840;SDS011;28491;46.898;7.660;2024-01-15T13:45:58;3.72;;;2.08;;
42840;SDS011;28491;46.898;7.660;2024-01-15T13:48:24;4.88;;;2.50;;
42840;SDS011;28491;46.898;7.660;2024-01-15T13:50:51;3.97;;;2.38;;
42840;SDS011;28491;46.898;7.660;2024-01-15T13:53:17;3.65;;;2.63;;
42840;SDS011;28491;46.898;7.660;2024-01-15T13:55:44;3.80;;;2.17;;
42840;SDS011;28491;46.898;7.660;2024-01-15T13:58:09;4.80;;;2.60;;
42840;SDS011;28491;46.898;7.660;2024-01-15T14:00:35;3.80;;;2.15;;
42840;SDS011;28491;46.898;7.660;2024-01-15T14:03:01;3.58;;;2.65;;
42840;SDS011;28491;46.898;7.660;2024-01-15T14:05:28;4.80;;;2.15;;
42840;SDS011;28491;46.898;7.660;2024-01-15T14:07:54;4.53;;;2.92;;
42840;SDS011;28491;46.898;7.660;2024-01-15T14:10:20;4.88;;;2.45;;
42840;SDS011;28491;46.898;7.660;2024-01-15T14:12:46;4.45;;;2.45;;
42840;SDS011;28491;46.898;7.660;2024-01-15T14:15:11;4.05;;;2.33;;
42840;SDS011;28491;46.898;7.660;2024-01-15T14:17:37;3.38;;;2.08;;
42840;SDS011;28491;46.898;7.660;2024-01-15T14:20:03;2.30;;;1.75;;
42840;SDS011;28491;46.898;7.660;2024-01-15T14:22:30;5.07;;;3.15;;
42840;SDS011;28491;46.898;7.660;2024-01-15T14:24:58;3.25;;;1.98;;
42840;SDS011;28491;46.898;7.660;2024-01-15T14:27:24;4.00;;;2.55;;
42840;SDS011;28491;46.898;7.660;2024-01-15T14:29:49;3.17;;;2.25;;
42840;SDS011;28491;46.898;7.660;2024-01-15T14:32:17;2.10;;;1.60;;
42840;SDS011;28491;46.898;7.660;2024-01-15T14:34:43;3.42;;;2.13;;
42840;SDS011;28491;46.898;7.660;2024-01-15T14:37:09;2.70;;;1.75;;
42840;SDS011;28491;46.898;7.660;2024-01-15T14:39:36;3.60;;;2.20;;
42840;SDS011;28491;46.898;7.660;2024-01-15T14:42:02;3.75;;;2.10;;
42840;SDS011;28491;46.898;7.660;2024-01-15T14:44:31;4.28;;;2.30;;
42840;SDS011;28491;46.898;7.660;2024-01-15T14:46:58;6.00;;;3.05;;
42840;SDS011;28491;46.898;7.660;2024-01-15T14:49:24;4.10;;;2.17;;
42840;SDS011;28491;46.898;7.660;2024-01-15T14:51:50;2.58;;;1.70;;
42840;SDS011;28491;46.898;7.660;2024-01-15T14:54:15;2.60;;;2.00;;
42840;SDS011;28491;46.898;7.660;2024-01-15T14:56:41;3.78;;;1.80;;
42840;SDS011;28491;46.898;7.660;2024-01-15T14:59:07;12.63;;;2.20;;
42840;SDS011;28491;46.898;7.660;2024-01-15T15:01:33;3.10;;;1.73;;
42840;SDS011;28491;46.898;7.660;2024-01-15T15:03:59;3.65;;;2.15;;
42840;SDS011;28491;46.898;7.660;2024-01-15T15:06:25;2.58;;;1.75;;
42840;SDS011;28491;46.898;7.660;2024-01-15T15:19:17;3.05;;;1.75;;
42840;SDS011;28491;46.898;7.660;2024-01-15T15:21:44;2.47;;;1.67;;
42840;SDS011;28491;46.898;7.660;2024-01-15T15:24:09;2.03;;;1.55;;
42840;SDS011;28491;46.898;7.660;2024-01-15T15:26:38;2.78;;;1.70;;
42840;SDS011;28491;46.898;7.660;2024-01-15T15:29:05;3.97;;;1.83;;
42840;SDS011;28491;46.898;7.660;2024-01-15T15:31:40;3.20;;;1.83;;